sensor_id;sensor_type;location;lat;lon;timestamp;P1;durP1;ratioP1;P2;durP2;ratioP2
65755;SDS011;52489;47.502;18.940;2022-07-21T00:00:05;1.50;;;1.40;;
65755;SDS011;52489;47.502;18.940;2022-07-21T00:01:10;1.55;;;1.37;;
65755;SDS011;52489;47.502;18.940;2022-07-21T00:02:13;2.28;;;1.50;;
65755;SDS011;52489;47.502;18.940;2022-07-21T00:03:16;1.83;;;1.40;;
65755;SDS011;52489;47.502;18.940;2022-07-21T00:04:20;1.52;;;1.30;;
65755;SDS011;52489;47.502;18.940;2022-07-21T00:05:24;2.55;;;1.40;;
65755;SDS011;52489;47.502;18.940;2022-07-21T00:06:27;1.73;;;1.20;;
65755;SDS011;52489;47.502;18.940;2022-07-21T00:07:30;3.12;;;1.15;;
65755;SDS011;52489;47.502;18.940;2022-07-21T00:08:33;2.72;;;1.30;;
65755;SDS011;52489;47.502;18.940;2022-07-21T00:09:36;1.30;;;1.20;;
65755;SDS011;52489;47.502;18.940;2022-07-21T00:10:39;2.25;;;1.42;;
65755;SDS011;52489;47.502;18.940;2022-07-21T00:11:43;1.62;;;1.30;;
65755;SDS011;52489;47.502;18.940;2022-07-21T00:12:45;1.77;;;1.45;;
65755;SDS011;52489;47.502;18.940;2022-07-21T00:13:48;1.70;;;1.40;;
65755;SDS011;52489;47.502;18.940;2022-07-21T00:14:52;1.65;;;1.37;;
65755;SDS011;52489;47.502;18.940;2022-07-21T00:15:55;2.47;;;1.30;;
65755;SDS011;52489;47.502;18.940;2022-07-21T00:16:58;2.50;;;1.30;;
65755;SDS011;52489;47.502;18.940;2022-07-21T00:18:01;3.45;;;1.60;;
65755;SDS011;52489;47.502;18.940;2022-07-21T00:19:06;2.47;;;1.70;;
65755;SDS011;52489;47.502;18.940;2022-07-21T00:20:10;2.97;;;1.52;;
65755;SDS011;52489;47.502;18.940;2022-07-21T00:21:13;2.25;;;1.60;;
65755;SDS011;52489;47.502;18.940;2022-07-21T00:22:16;1.40;;;1.30;;
65755;SDS011;52489;47.502;18.940;2022-07-21T00:23:19;2.83;;;1.50;;
65755;SDS011;52489;47.502;18.940;2022-07-21T00:24:22;1.52;;;1.40;;
65755;SDS011;52489;47.502;18.940;2022-07-21T00:25:25;3.58;;;1.55;;
65755;SDS011;52489;47.502;18.940;2022-07-21T00:26:35;1.60;;;1.37;;
65755;SDS011;52489;47.502;18.940;2022-07-21T00:27:38;1.50;;;1.20;;
65755;SDS011;52489;47.502;18.940;2022-07-21T00:28:41;1.87;;;1.42;;
65755;SDS011;52489;47.502;18.940;2022-07-21T00:29:43;1.67;;;1.40;;
65755;SDS011;52489;47.502;18.940;2022-07-21T00:30:46;2.53;;;1.52;;
65755;SDS011;52489;47.502;18.940;2022-07-21T00:31:49;4.00;;;1.80;;
65755;SDS011;52489;47.502;18.940;2022-07-21T00:32:52;1.60;;;1.33;;
65755;SDS011;52489;47.502;18.940;2022-07-21T00:33:55;1.65;;;1.50;;
65755;SDS011;52489;47.502;18.940;2022-07-21T00:34:58;2.45;;;1.40;;
65755;SDS011;52489;47.502;18.940;2022-07-21T00:36:01;2.67;;;1.50;;
65755;SDS011;52489;47.502;18.940;2022-07-21T00:37:03;4.75;;;1.60;;
65755;SDS011;52489;47.502;18.940;2022-07-21T00:38:06;1.40;;;1.20;;
65755;SDS011;52489;47.502;18.940;2022-07-21T00:39:09;1.60;;;1.50;;
65755;SDS011;52489;47.502;18.940;2022-07-21T00:40:12;3.15;;;1.27;;
65755;SDS011;52489;47.502;18.940;2022-07-21T00:41:15;5.07;;;1.55;;
65755;SDS011;52489;47.502;18.940;2022-07-21T00:42:22;2.50;;;1.55;;
65755;SDS011;52489;47.502;18.940;2022-07-21T00:43:27;1.85;;;1.52;;
65755;SDS011;52489;47.502;18.940;2022-07-21T00:44:30;1.98;;;1.37;;
65755;SDS011;52489;47.502;18.940;2022-07-21T00:45:33;2.58;;;1.60;;
65755;SDS011;52489;47.502;18.940;2022-07-21T00:46:36;6.07;;;1.73;;
65755;SDS011;52489;47.502;18.940;2022-07-21T00:47:39;1.40;;;1.30;;
65755;SDS011;52489;47.502;18.940;2022-07-21T00:48:42;1.98;;;1.33;;
65755;SDS011;52489;47.502;18.940;2022-07-21T00:49:45;1.87;;;1.62;;
65755;SDS011;52489;47.502;18.940;2022-07-21T00:50:49;2.03;;;1.50;;
65755;SDS011;52489;47.502;18.940;2022-07-21T00:51:52;1.50;;;1.40;;
65755;SDS011;52489;47.502;18.940;2022-07-21T00:52:55;3.72;;;1.60;;
65755;SDS011;52489;47.502;18.940;2022-07-21T00:53:57;4.30;;;1.73;;
65755;SDS011;52489;47.502;18.940;2022-07-21T00:55:00;2.70;;;1.35;;
65755;SDS011;52489;47.502;18.940;2022-07-21T00:56:04;3.53;;;1.87;;
65755;SDS011;52489;47.502;18.940;2022-07-21T00:57:08;1.40;;;1.30;;
65755;SDS011;52489;47.502;18.940;2022-07-21T00:58:12;1.37;;;1.27;;
65755;SDS011;52489;47.502;18.940;2022-07-21T00:59:15;1.90;;;1.40;;
65755;SDS011;52489;47.502;18.940;2022-07-21T01:00:22;2.72;;;1.95;;
65755;SDS011;52489;47.502;18.940;2022-07-21T01:01:28;1.30;;;1.20;;
65755;SDS011;52489;47.502;18.940;2022-07-21T01:02:31;5.75;;;1.40;;
65755;SDS011;52489;47.502;18.940;2022-07-21T01:03:35;1.98;;;1.60;;
65755;SDS011;52489;47.502;18.940;2022-07-21T01:04:40;2.08;;;1.33;;
65755;SDS011;52489;47.502;18.940;2022-07-21T01:05:43;1.83;;;1.42;;
65755;SDS011;52489;47.502;18.940;2022-07-21T01:06:46;1.30;;;1.20;;
65755;SDS011;52489;47.502;18.940;2022-07-21T01:07:51;2.15;;;1.33;;
65755;SDS011;52489;47.502;18.940;2022-07-21T01:08:55;4.95;;;1.48;;
65755;SDS011;52489;47.502;18.940;2022-07-21T01:10:02;2.10;;;1.55;;
65755;SDS011;52489;47.502;18.940;2022-07-21T01:11:04;2.33;;;1.37;;
65755;SDS011;52489;47.502;18.940;2022-07-21T01:12:07;1.52;;;1.30;;
65755;SDS011;52489;47.502;18.940;2022-07-21T01:13:11;4.28;;;1.80;;
65755;SDS011;52489;47.502;18.940;2022-07-21T01:14:14;2.00;;;1.50;;
65755;SDS011;52489;47.502;18.940;2022-07-21T01:15:18;3.08;;;1.42;;
65755;SDS011;52489;47.502;18.940;2022-07-21T01:16:22;1.77;;;1.40;;
65755;SDS011;52489;47.502;18.940;2022-07-21T01:17:25;1.42;;;1.27;;
65755;SDS011;52489;47.502;18.940;2022-07-21T01:18:28;4.32;;;1.90;;
65755;SDS011;52489;47.502;18.940;2022-07-21T01:19:31;4.22;;;1.60;;
65755;SDS011;52489;47.502;18.940;2022-07-21T01:20:34;4.32;;;1.45;;
65755;SDS011;52489;47.502;18.940;2022-07-21T01:21:39;1.73;;;1.42;;
65755;SDS011;52489;47.502;18.940;2022-07-21T01:22:44;2.35;;;1.52;;
65755;SDS011;52489;47.502;18.940;2022-07-21T01:23:49;5.57;;;1.58;;
65755;SDS011;52489;47.502;18.940;2022-07-21T01:24:52;2.62;;;1.40;;
65755;SDS011;52489;47.502;18.940;2022-07-21T01:25:54;3.67;;;1.30;;
65755;SDS011;52489;47.502;18.940;2022-07-21T01:26:57;3.17;;;1.30;;
65755;SDS011;52489;47.502;18.940;2022-07-21T01:28:00;1.87;;;1.30;;
65755;SDS011;52489;47.502;18.940;2022-07-21T01:29:03;1.77;;;1.52;;
65755;SDS011;52489;47.502;18.940;2022-07-21T01:30:06;2.33;;;1.55;;
65755;SDS011;52489;47.502;18.940;2022-07-21T01:31:12;3.50;;;1.40;;
65755;SDS011;52489;47.502;18.940;2022-07-21T01:32:15;1.20;;;1.10;;
65755;SDS011;52489;47.502;18.940;2022-07-21T01:33:17;2.72;;;1.55;;
65755;SDS011;52489;47.502;18.940;2022-07-21T01:34:20;1.70;;;1.48;;
65755;SDS011;52489;47.502;18.940;2022-07-21T01:35:23;2.05;;;1.50;;
65755;SDS011;52489;47.502;18.940;2022-07-21T01:36:26;3.78;;;1.70;;
65755;SDS011;52489;47.502;18.940;2022-07-21T01:37:30;1.70;;;1.60;;
65755;SDS011;52489;47.502;18.940;2022-07-21T01:38:33;2.53;;;1.58;;
65755;SDS011;52489;47.502;18.940;2022-07-21T01:39:55;1.40;;;1.30;;
65755;SDS011;52489;47.502;18.940;2022-07-21T01:41:17;2.08;;;1.45;;
65755;SDS011;52489;47.502;18.940;2022-07-21T01:42:32;4.40;;;2.03;;
65755;SDS011;52489;47.502;18.940;2022-07-21T01:43:35;2.22;;;1.50;;
65755;SDS011;52489;47.502;18.940;2022-07-21T01:44:38;3.20;;;1.30;;
65755;SDS011;52489;47.502;18.940;2022-07-21T01:45:41;2.80;;;1.45;;
65755;SDS011;52489;47.502;18.940;2022-07-21T01:46:48;1.67;;;1.40;;
65755;SDS011;52489;47.502;18.940;2022-07-21T01:47:52;1.80;;;1.50;;
65755;SDS011;52489;47.502;18.940;2022-07-21T01:48:55;2.97;;;1.50;;
65755;SDS011;52489;47.502;18.940;2022-07-21T01:49:59;1.30;;;1.20;;
65755;SDS011;52489;47.502;18.940;2022-07-21T01:51:01;2.87;;;1.20;;
65755;SDS011;52489;47.502;18.940;2022-07-21T01:52:04;8.23;;;1.40;;
65755;SDS011;52489;47.502;18.940;2022-07-21T01:53:07;8.00;;;1.60;;
65755;SDS011;52489;47.502;18.940;2022-07-21T01:54:10;3.80;;;1.77;;
65755;SDS011;52489;47.502;18.940;2022-07-21T01:55:13;3.05;;;1.50;;
65755;SDS011;52489;47.502;18.940;2022-07-21T01:56:18;1.70;;;1.35;;
65755;SDS011;52489;47.502;18.940;2022-07-21T01:57:22;1.50;;;1.40;;
65755;SDS011;52489;47.502;18.940;2022-07-21T01:58:25;2.03;;;1.23;;
65755;SDS011;52489;47.502;18.940;2022-07-21T01:59:27;3.47;;;1.40;;
65755;SDS011;52489;47.502;18.940;2022-07-21T02:00:30;1.73;;;1.30;;
65755;SDS011;52489;47.502;18.940;2022-07-21T02:01:33;1.67;;;1.30;;
65755;SDS011;52489;47.502;18.940;2022-07-21T02:02:38;1.73;;;1.37;;
65755;SDS011;52489;47.502;18.940;2022-07-21T02:03:40;2.97;;;1.60;;
65755;SDS011;52489;47.502;18.940;2022-07-21T02:04:43;3.95;;;1.52;;
65755;SDS011;52489;47.502;18.940;2022-07-21T02:05:46;2.08;;;1.85;;
65755;SDS011;52489;47.502;18.940;2022-07-21T02:06:49;2.20;;;1.42;;
65755;SDS011;52489;47.502;18.940;2022-07-21T02:07:52;2.55;;;1.90;;
65755;SDS011;52489;47.502;18.940;2022-07-21T02:08:55;2.95;;;1.55;;
65755;SDS011;52489;47.502;18.940;2022-07-21T02:09:58;2.12;;;1.45;;
65755;SDS011;52489;47.502;18.940;2022-07-21T02:11:01;1.50;;;1.40;;
65755;SDS011;52489;47.502;18.940;2022-07-21T02:12:04;2.87;;;1.60;;
65755;SDS011;52489;47.502;18.940;2022-07-21T02:13:07;1.50;;;1.30;;
65755;SDS011;52489;47.502;18.940;2022-07-21T02:14:10;1.40;;;1.30;;
65755;SDS011;52489;47.502;18.940;2022-07-21T02:15:13;2.17;;;1.40;;
65755;SDS011;52489;47.502;18.940;2022-07-21T02:16:16;2.53;;;1.70;;
65755;SDS011;52489;47.502;18.940;2022-07-21T02:17:19;1.92;;;1.42;;
65755;SDS011;52489;47.502;18.940;2022-07-21T02:18:22;2.15;;;1.40;;
65755;SDS011;52489;47.502;18.940;2022-07-21T02:19:24;2.17;;;1.58;;
65755;SDS011;52489;47.502;18.940;2022-07-21T02:20:29;2.22;;;1.58;;
65755;SDS011;52489;47.502;18.940;2022-07-21T02:21:32;3.28;;;1.60;;
65755;SDS011;52489;47.502;18.940;2022-07-21T02:22:35;3.10;;;1.60;;
65755;SDS011;52489;47.502;18.940;2022-07-21T02:23:37;1.50;;;1.40;;
65755;SDS011;52489;47.502;18.940;2022-07-21T02:24:40;1.87;;;1.37;;
65755;SDS011;52489;47.502;18.940;2022-07-21T02:25:43;3.62;;;1.67;;
65755;SDS011;52489;47.502;18.940;2022-07-21T02:26:47;1.40;;;1.30;;
65755;SDS011;52489;47.502;18.940;2022-07-21T02:27:49;2.05;;;1.50;;
65755;SDS011;52489;47.502;18.940;2022-07-21T02:28:52;3.60;;;1.40;;
65755;SDS011;52489;47.502;18.940;2022-07-21T02:29:56;3.08;;;1.50;;
65755;SDS011;52489;47.502;18.940;2022-07-21T02:30:59;2.00;;;1.50;;
65755;SDS011;52489;47.502;18.940;2022-07-21T02:32:02;1.67;;;1.20;;
65755;SDS011;52489;47.502;18.940;2022-07-21T02:33:05;4.40;;;1.52;;
65755;SDS011;52489;47.502;18.940;2022-07-21T02:34:08;3.53;;;1.55;;
65755;SDS011;52489;47.502;18.940;2022-07-21T02:35:12;1.85;;;1.50;;
65755;SDS011;52489;47.502;18.940;2022-07-21T02:36:16;1.52;;;1.35;;
65755;SDS011;52489;47.502;18.940;2022-07-21T02:37:19;1.70;;;1.45;;
65755;SDS011;52489;47.502;18.940;2022-07-21T02:38:22;4.78;;;1.48;;
65755;SDS011;52489;47.502;18.940;2022-07-21T02:39:24;9.32;;;1.70;;
65755;SDS011;52489;47.502;18.940;2022-07-21T02:40:28;2.92;;;1.37;;
65755;SDS011;52489;47.502;18.940;2022-07-21T02:41:31;1.67;;;1.42;;
65755;SDS011;52489;47.502;18.940;2022-07-21T02:42:34;2.55;;;1.48;;
65755;SDS011;52489;47.502;18.940;2022-07-21T02:43:36;10.57;;;1.73;;
65755;SDS011;52489;47.502;18.940;2022-07-21T02:44:39;3.00;;;1.40;;
65755;SDS011;52489;47.502;18.940;2022-07-21T02:45:42;6.00;;;1.65;;
65755;SDS011;52489;47.502;18.940;2022-07-21T02:46:46;2.50;;;1.60;;
65755;SDS011;52489;47.502;18.940;2022-07-21T02:47:49;6.50;;;1.58;;
65755;SDS011;52489;47.502;18.940;2022-07-21T02:48:57;1.40;;;1.30;;
65755;SDS011;52489;47.502;18.940;2022-07-21T02:50:00;2.80;;;1.40;;
65755;SDS011;52489;47.502;18.940;2022-07-21T02:51:03;1.83;;;1.50;;
65755;SDS011;52489;47.502;18.940;2022-07-21T02:52:09;8.13;;;1.62;;
65755;SDS011;52489;47.502;18.940;2022-07-21T02:53:13;2.70;;;1.35;;
65755;SDS011;52489;47.502;18.940;2022-07-21T02:54:21;2.87;;;1.73;;
65755;SDS011;52489;47.502;18.940;2022-07-21T02:55:24;2.17;;;1.70;;
65755;SDS011;52489;47.502;18.940;2022-07-21T02:56:28;1.65;;;1.50;;
65755;SDS011;52489;47.502;18.940;2022-07-21T02:57:31;1.92;;;1.65;;
65755;SDS011;52489;47.502;18.940;2022-07-21T02:58:34;2.45;;;1.50;;
65755;SDS011;52489;47.502;18.940;2022-07-21T02:59:36;3.90;;;1.55;;
65755;SDS011;52489;47.502;18.940;2022-07-21T03:00:42;2.78;;;1.83;;
65755;SDS011;52489;47.502;18.940;2022-07-21T03:01:47;2.70;;;1.70;;
65755;SDS011;52489;47.502;18.940;2022-07-21T03:02:50;1.87;;;1.60;;
65755;SDS011;52489;47.502;18.940;2022-07-21T03:03:52;2.53;;;1.75;;
65755;SDS011;52489;47.502;18.940;2022-07-21T03:04:55;2.72;;;1.77;;
65755;SDS011;52489;47.502;18.940;2022-07-21T03:05:58;3.12;;;1.80;;
65755;SDS011;52489;47.502;18.940;2022-07-21T03:07:01;3.78;;;1.50;;
65755;SDS011;52489;47.502;18.940;2022-07-21T03:08:05;1.70;;;1.60;;
65755;SDS011;52489;47.502;18.940;2022-07-21T03:09:09;3.50;;;1.65;;
65755;SDS011;52489;47.502;18.940;2022-07-21T03:10:12;2.58;;;1.60;;
65755;SDS011;52489;47.502;18.940;2022-07-21T03:11:15;8.95;;;1.80;;
65755;SDS011;52489;47.502;18.940;2022-07-21T03:12:17;1.73;;;1.50;;
65755;SDS011;52489;47.502;18.940;2022-07-21T03:13:20;4.10;;;1.73;;
65755;SDS011;52489;47.502;18.940;2022-07-21T03:14:24;2.22;;;1.70;;
65755;SDS011;52489;47.502;18.940;2022-07-21T03:15:27;5.45;;;1.70;;
65755;SDS011;52489;47.502;18.940;2022-07-21T03:16:30;3.17;;;1.75;;
65755;SDS011;52489;47.502;18.940;2022-07-21T03:17:33;9.48;;;1.75;;
65755;SDS011;52489;47.502;18.940;2022-07-21T03:18:36;3.67;;;1.83;;
65755;SDS011;52489;47.502;18.940;2022-07-21T03:19:39;3.03;;;1.70;;
65755;SDS011;52489;47.502;18.940;2022-07-21T03:20:42;4.07;;;2.10;;
65755;SDS011;52489;47.502;18.940;2022-07-21T03:21:46;2.85;;;1.80;;
65755;SDS011;52489;47.502;18.940;2022-07-21T03:22:48;2.35;;;1.52;;
65755;SDS011;52489;47.502;18.940;2022-07-21T03:23:51;2.75;;;1.80;;
65755;SDS011;52489;47.502;18.940;2022-07-21T03:24:54;1.70;;;1.60;;
65755;SDS011;52489;47.502;18.940;2022-07-21T03:25:57;3.97;;;1.90;;
65755;SDS011;52489;47.502;18.940;2022-07-21T03:26:59;2.00;;;1.67;;
65755;SDS011;52489;47.502;18.940;2022-07-21T03:28:09;8.50;;;2.00;;
65755;SDS011;52489;47.502;18.940;2022-07-21T03:29:11;3.70;;;1.75;;
65755;SDS011;52489;47.502;18.940;2022-07-21T03:30:15;2.05;;;1.60;;
65755;SDS011;52489;47.502;18.940;2022-07-21T03:31:18;2.60;;;1.90;;
65755;SDS011;52489;47.502;18.940;2022-07-21T03:32:21;2.97;;;1.67;;
65755;SDS011;52489;47.502;18.940;2022-07-21T03:33:24;6.05;;;2.10;;
65755;SDS011;52489;47.502;18.940;2022-07-21T03:34:27;2.92;;;1.83;;
65755;SDS011;52489;47.502;18.940;2022-07-21T03:35:29;8.77;;;1.67;;
65755;SDS011;52489;47.502;18.940;2022-07-21T03:36:32;3.25;;;1.90;;
65755;SDS011;52489;47.502;18.940;2022-07-21T03:37:42;3.12;;;1.83;;
65755;SDS011;52489;47.502;18.940;2022-07-21T03:39:04;1.60;;;1.50;;
65755;SDS011;52489;47.502;18.940;2022-07-21T03:40:07;4.12;;;1.83;;
65755;SDS011;52489;47.502;18.940;2022-07-21T03:41:11;4.30;;;1.67;;
65755;SDS011;52489;47.502;18.940;2022-07-21T03:42:14;2.87;;;1.77;;
65755;SDS011;52489;47.502;18.940;2022-07-21T03:43:17;6.62;;;1.95;;
65755;SDS011;52489;47.502;18.940;2022-07-21T03:44:20;3.28;;;1.90;;
65755;SDS011;52489;47.502;18.940;2022-07-21T03:45:23;2.17;;;1.65;;
65755;SDS011;52489;47.502;18.940;2022-07-21T03:46:27;3.70;;;1.70;;
65755;SDS011;52489;47.502;18.940;2022-07-21T03:47:30;3.58;;;1.60;;
65755;SDS011;52489;47.502;18.940;2022-07-21T03:48:33;4.10;;;1.77;;
65755;SDS011;52489;47.502;18.940;2022-07-21T03:49:35;2.47;;;1.80;;
65755;SDS011;52489;47.502;18.940;2022-07-21T03:50:39;5.40;;;1.95;;
65755;SDS011;52489;47.502;18.940;2022-07-21T03:51:43;1.98;;;1.60;;
65755;SDS011;52489;47.502;18.940;2022-07-21T03:52:46;4.95;;;1.85;;
65755;SDS011;52489;47.502;18.940;2022-07-21T03:53:48;3.20;;;1.62;;
65755;SDS011;52489;47.502;18.940;2022-07-21T03:54:51;3.40;;;1.58;;
65755;SDS011;52489;47.502;18.940;2022-07-21T03:56:16;2.90;;;1.67;;
65755;SDS011;52489;47.502;18.940;2022-07-21T03:57:19;2.17;;;1.75;;
65755;SDS011;52489;47.502;18.940;2022-07-21T03:58:21;3.17;;;1.85;;
65755;SDS011;52489;47.502;18.940;2022-07-21T03:59:24;2.83;;;1.60;;
65755;SDS011;52489;47.502;18.940;2022-07-21T04:00:30;3.50;;;1.95;;
65755;SDS011;52489;47.502;18.940;2022-07-21T04:01:39;3.03;;;1.75;;
65755;SDS011;52489;47.502;18.940;2022-07-21T04:02:42;2.50;;;1.80;;
65755;SDS011;52489;47.502;18.940;2022-07-21T04:03:47;2.42;;;1.73;;
65755;SDS011;52489;47.502;18.940;2022-07-21T04:04:50;3.17;;;1.85;;
65755;SDS011;52489;47.502;18.940;2022-07-21T04:05:56;4.00;;;1.83;;
65755;SDS011;52489;47.502;18.940;2022-07-21T04:06:59;4.00;;;1.87;;
65755;SDS011;52489;47.502;18.940;2022-07-21T04:08:02;2.35;;;1.85;;
65755;SDS011;52489;47.502;18.940;2022-07-21T04:09:05;4.90;;;2.15;;
65755;SDS011;52489;47.502;18.940;2022-07-21T04:10:09;2.85;;;1.77;;
65755;SDS011;52489;47.502;18.940;2022-07-21T04:11:13;3.17;;;1.80;;
65755;SDS011;52489;47.502;18.940;2022-07-21T04:12:16;4.53;;;2.10;;
65755;SDS011;52489;47.502;18.940;2022-07-21T04:13:18;3.10;;;1.80;;
65755;SDS011;52489;47.502;18.940;2022-07-21T04:14:27;4.72;;;2.00;;
65755;SDS011;52489;47.502;18.940;2022-07-21T04:15:30;3.58;;;1.95;;
65755;SDS011;52489;47.502;18.940;2022-07-21T04:16:33;2.12;;;1.67;;
65755;SDS011;52489;47.502;18.940;2022-07-21T04:17:36;6.03;;;2.62;;
65755;SDS011;52489;47.502;18.940;2022-07-21T04:18:39;4.00;;;1.87;;
65755;SDS011;52489;47.502;18.940;2022-07-21T04:19:42;3.33;;;1.90;;
65755;SDS011;52489;47.502;18.940;2022-07-21T04:20:45;8.43;;;2.10;;
65755;SDS011;52489;47.502;18.940;2022-07-21T04:21:47;3.70;;;2.03;;
65755;SDS011;52489;47.502;18.940;2022-07-21T04:22:50;6.40;;;2.00;;
65755;SDS011;52489;47.502;18.940;2022-07-21T04:23:54;3.72;;;2.05;;
65755;SDS011;52489;47.502;18.940;2022-07-21T04:24:56;3.80;;;2.05;;
65755;SDS011;52489;47.502;18.940;2022-07-21T04:25:59;5.35;;;2.17;;
65755;SDS011;52489;47.502;18.940;2022-07-21T04:27:02;8.75;;;1.90;;
65755;SDS011;52489;47.502;18.940;2022-07-21T04:28:05;2.40;;;1.90;;
65755;SDS011;52489;47.502;18.940;2022-07-21T04:29:09;2.80;;;1.87;;
65755;SDS011;52489;47.502;18.940;2022-07-21T04:30:13;4.50;;;1.90;;
65755;SDS011;52489;47.502;18.940;2022-07-21T04:31:18;5.85;;;1.80;;
65755;SDS011;52489;47.502;18.940;2022-07-21T04:32:21;4.00;;;1.80;;
65755;SDS011;52489;47.502;18.940;2022-07-21T04:33:23;3.20;;;1.95;;
65755;SDS011;52489;47.502;18.940;2022-07-21T04:34:26;5.87;;;1.95;;
65755;SDS011;52489;47.502;18.940;2022-07-21T04:35:30;3.58;;;1.67;;
65755;SDS011;52489;47.502;18.940;2022-07-21T04:36:33;4.30;;;2.22;;
65755;SDS011;52489;47.502;18.940;2022-07-21T04:37:36;6.78;;;1.98;;
65755;SDS011;52489;47.502;18.940;2022-07-21T04:38:38;4.07;;;1.62;;
65755;SDS011;52489;47.502;18.940;2022-07-21T04:39:41;3.03;;;1.70;;
65755;SDS011;52489;47.502;18.940;2022-07-21T04:40:46;3.30;;;1.95;;
65755;SDS011;52489;47.502;18.940;2022-07-21T04:41:49;2.03;;;1.50;;
65755;SDS011;52489;47.502;18.940;2022-07-21T04:42:52;2.37;;;1.80;;
65755;SDS011;52489;47.502;18.940;2022-07-21T04:43:54;2.70;;;1.98;;
65755;SDS011;52489;47.502;18.940;2022-07-21T04:44:57;3.50;;;1.95;;
65755;SDS011;52489;47.502;18.940;2022-07-21T04:46:00;4.07;;;2.25;;
65755;SDS011;52489;47.502;18.940;2022-07-21T04:47:04;2.92;;;1.90;;
65755;SDS011;52489;47.502;18.940;2022-07-21T04:48:07;2.42;;;1.80;;
65755;SDS011;52489;47.502;18.940;2022-07-21T04:49:10;4.80;;;2.37;;
65755;SDS011;52489;47.502;18.940;2022-07-21T04:50:13;3.30;;;1.90;;
65755;SDS011;52489;47.502;18.940;2022-07-21T04:51:17;2.72;;;1.80;;
65755;SDS011;52489;47.502;18.940;2022-07-21T04:52:20;7.72;;;2.03;;
65755;SDS011;52489;47.502;18.940;2022-07-21T04:53:22;4.60;;;2.25;;
65755;SDS011;52489;47.502;18.940;2022-07-21T04:54:25;2.97;;;1.80;;
65755;SDS011;52489;47.502;18.940;2022-07-21T04:55:28;7.05;;;2.42;;
65755;SDS011;52489;47.502;18.940;2022-07-21T04:56:31;2.47;;;1.65;;
65755;SDS011;52489;47.502;18.940;2022-07-21T04:57:39;4.75;;;2.12;;
65755;SDS011;52489;47.502;18.940;2022-07-21T04:58:43;3.60;;;2.03;;
65755;SDS011;52489;47.502;18.940;2022-07-21T04:59:46;4.07;;;1.85;;
65755;SDS011;52489;47.502;18.940;2022-07-21T05:00:48;2.80;;;1.80;;
65755;SDS011;52489;47.502;18.940;2022-07-21T05:01:51;2.58;;;1.73;;
65755;SDS011;52489;47.502;18.940;2022-07-21T05:02:54;4.78;;;1.92;;
65755;SDS011;52489;47.502;18.940;2022-07-21T05:03:57;3.50;;;1.80;;
65755;SDS011;52489;47.502;18.940;2022-07-21T05:05:00;2.87;;;1.70;;
65755;SDS011;52489;47.502;18.940;2022-07-21T05:06:03;3.35;;;1.95;;
65755;SDS011;52489;47.502;18.940;2022-07-21T05:07:06;3.92;;;2.25;;
65755;SDS011;52489;47.502;18.940;2022-07-21T05:08:13;5.30;;;2.00;;
65755;SDS011;52489;47.502;18.940;2022-07-21T05:09:16;9.52;;;2.22;;
65755;SDS011;52489;47.502;18.940;2022-07-21T05:10:19;7.15;;;2.35;;
65755;SDS011;52489;47.502;18.940;2022-07-21T05:11:23;2.97;;;1.95;;
65755;SDS011;52489;47.502;18.940;2022-07-21T05:12:26;4.10;;;2.03;;
65755;SDS011;52489;47.502;18.940;2022-07-21T05:13:29;7.00;;;1.70;;
65755;SDS011;52489;47.502;18.940;2022-07-21T05:14:32;4.20;;;1.90;;
65755;SDS011;52489;47.502;18.940;2022-07-21T05:15:35;4.40;;;2.20;;
65755;SDS011;52489;47.502;18.940;2022-07-21T05:16:38;11.52;;;2.03;;
65755;SDS011;52489;47.502;18.940;2022-07-21T05:17:41;3.28;;;1.95;;
65755;SDS011;52489;47.502;18.940;2022-07-21T05:18:44;2.72;;;1.95;;
65755;SDS011;52489;47.502;18.940;2022-07-21T05:19:47;2.40;;;1.70;;
65755;SDS011;52489;47.502;18.940;2022-07-21T05:21:00;2.00;;;1.73;;
65755;SDS011;52489;47.502;18.940;2022-07-21T05:22:03;2.42;;;1.80;;
65755;SDS011;52489;47.502;18.940;2022-07-21T05:23:06;6.12;;;1.92;;
65755;SDS011;52489;47.502;18.940;2022-07-21T05:24:10;2.75;;;1.98;;
65755;SDS011;52489;47.502;18.940;2022-07-21T05:25:13;3.35;;;2.15;;
65755;SDS011;52489;47.502;18.940;2022-07-21T05:26:16;2.80;;;1.55;;
65755;SDS011;52489;47.502;18.940;2022-07-21T05:27:19;3.55;;;1.95;;
65755;SDS011;52489;47.502;18.940;2022-07-21T05:28:22;3.10;;;1.85;;
65755;SDS011;52489;47.502;18.940;2022-07-21T05:29:24;3.50;;;1.83;;
65755;SDS011;52489;47.502;18.940;2022-07-21T05:30:27;6.95;;;1.98;;
65755;SDS011;52489;47.502;18.940;2022-07-21T05:31:30;4.22;;;1.70;;
65755;SDS011;52489;47.502;18.940;2022-07-21T05:32:33;2.67;;;1.80;;
65755;SDS011;52489;47.502;18.940;2022-07-21T05:33:36;4.60;;;2.00;;
65755;SDS011;52489;47.502;18.940;2022-07-21T05:34:39;2.53;;;1.52;;
65755;SDS011;52489;47.502;18.940;2022-07-21T05:35:42;2.60;;;2.03;;
65755;SDS011;52489;47.502;18.940;2022-07-21T05:36:44;2.30;;;1.90;;
65755;SDS011;52489;47.502;18.940;2022-07-21T05:37:47;4.25;;;1.98;;
65755;SDS011;52489;47.502;18.940;2022-07-21T05:38:50;4.00;;;1.70;;
65755;SDS011;52489;47.502;18.940;2022-07-21T05:39:53;2.95;;;1.85;;
65755;SDS011;52489;47.502;18.940;2022-07-21T05:40:56;2.87;;;1.80;;
65755;SDS011;52489;47.502;18.940;2022-07-21T05:42:02;4.05;;;2.17;;
65755;SDS011;52489;47.502;18.940;2022-07-21T05:43:05;8.40;;;2.17;;
65755;SDS011;52489;47.502;18.940;2022-07-21T05:44:08;3.75;;;2.15;;
65755;SDS011;52489;47.502;18.940;2022-07-21T05:45:10;3.35;;;1.83;;
65755;SDS011;52489;47.502;18.940;2022-07-21T05:46:14;4.37;;;2.08;;
65755;SDS011;52489;47.502;18.940;2022-07-21T05:47:17;2.67;;;2.00;;
65755;SDS011;52489;47.502;18.940;2022-07-21T05:48:20;5.78;;;1.70;;
65755;SDS011;52489;47.502;18.940;2022-07-21T05:49:23;5.93;;;2.08;;
65755;SDS011;52489;47.502;18.940;2022-07-21T05:50:26;2.42;;;1.80;;
65755;SDS011;52489;47.502;18.940;2022-07-21T05:51:28;2.35;;;1.90;;
65755;SDS011;52489;47.502;18.940;2022-07-21T05:52:31;3.83;;;2.42;;
65755;SDS011;52489;47.502;18.940;2022-07-21T05:53:34;3.53;;;2.00;;
65755;SDS011;52489;47.502;18.940;2022-07-21T05:54:37;7.70;;;2.03;;
65755;SDS011;52489;47.502;18.940;2022-07-21T05:55:40;5.37;;;2.37;;
65755;SDS011;52489;47.502;18.940;2022-07-21T05:56:44;3.42;;;1.98;;
65755;SDS011;52489;47.502;18.940;2022-07-21T05:57:47;4.97;;;1.83;;
65755;SDS011;52489;47.502;18.940;2022-07-21T05:58:49;6.80;;;2.40;;
65755;SDS011;52489;47.502;18.940;2022-07-21T05:59:53;3.42;;;1.80;;
65755;SDS011;52489;47.502;18.940;2022-07-21T06:00:55;5.50;;;1.90;;
65755;SDS011;52489;47.502;18.940;2022-07-21T06:02:11;2.60;;;2.12;;
65755;SDS011;52489;47.502;18.940;2022-07-21T06:03:14;4.32;;;2.03;;
65755;SDS011;52489;47.502;18.940;2022-07-21T06:04:16;2.53;;;1.77;;
65755;SDS011;52489;47.502;18.940;2022-07-21T06:05:20;4.78;;;2.20;;
65755;SDS011;52489;47.502;18.940;2022-07-21T06:06:22;3.40;;;1.87;;
65755;SDS011;52489;47.502;18.940;2022-07-21T06:07:25;3.58;;;2.05;;
65755;SDS011;52489;47.502;18.940;2022-07-21T06:08:28;3.08;;;2.10;;
65755;SDS011;52489;47.502;18.940;2022-07-21T06:09:31;4.37;;;2.15;;
65755;SDS011;52489;47.502;18.940;2022-07-21T06:10:34;3.47;;;2.05;;
65755;SDS011;52489;47.502;18.940;2022-07-21T06:11:37;2.92;;;1.85;;
65755;SDS011;52489;47.502;18.940;2022-07-21T06:12:43;3.47;;;2.08;;
65755;SDS011;52489;47.502;18.940;2022-07-21T06:13:47;5.20;;;2.10;;
65755;SDS011;52489;47.502;18.940;2022-07-21T06:14:50;2.75;;;1.87;;
65755;SDS011;52489;47.502;18.940;2022-07-21T06:15:53;4.60;;;2.10;;
65755;SDS011;52489;47.502;18.940;2022-07-21T06:16:56;3.72;;;1.90;;